Gooik, Belgium
Current Conditions -  °F | °C
As of 11:25 PM on Wednesday 26 Nov 2014 (Local Time) from EBCV Reporting Station
Overcast Overcast  
Wind Chill: 50°   Ceiling: 1000
Heat Index: 50°   Visibility: 3mi
Dew Point: 48°   Wind: 5mph
Humidity: 94%   Direction: 170°S
Pressure: 29.8"   Gusts: NA
Location:  50.79°N, 4.11°E
Report Text: EBCV 262225Z AUTO 17004KT 4800 SCT007/// OVC010/// 10/09 Q1009 GRN
Loading
Personal Weather Stations






























Interactive Weather Map New forecast layout! Learn more

10-Day Weather Forecast

Advertisements
Track Severe Weather on mobile